sensor_id;sensor_type;location;lat;lon;timestamp;temperature;humidity
33109;HTU21D;19481;51.118;6.940;2023-12-04T00:01:22;0.59;67.69
33109;HTU21D;19481;51.118;6.940;2023-12-04T00:06:25;0.64;67.04
33109;HTU21D;19481;51.118;6.940;2023-12-04T00:11:26;0.67;66.81
33109;HTU21D;19481;51.118;6.940;2023-12-04T00:16:28;0.69;66.00
33109;HTU21D;19481;51.118;6.940;2023-12-04T00:21:31;0.74;65.50
33109;HTU21D;19481;51.118;6.940;2023-12-04T00:26:32;0.75;65.03
33109;HTU21D;19481;51.118;6.940;2023-12-04T00:31:34;0.79;64.29
33109;HTU21D;19481;51.118;6.940;2023-12-04T00:36:37;0.80;64.99
33109;HTU21D;19481;51.118;6.940;2023-12-04T00:41:39;0.83;64.40
33109;HTU21D;19481;51.118;6.940;2023-12-04T00:46:40;0.78;64.77
33109;HTU21D;19481;51.118;6.940;2023-12-04T00:51:43;0.81;64.43
33109;HTU21D;19481;51.118;6.940;2023-12-04T00:56:45;0.78;64.07
33109;HTU21D;19481;51.118;6.940;2023-12-04T01:01:47;0.78;64.68
33109;HTU21D;19481;51.118;6.940;2023-12-04T01:06:49;0.74;64.84
33109;HTU21D;19481;51.118;6.940;2023-12-04T01:11:52;0.76;63.64
33109;HTU21D;19481;51.118;6.940;2023-12-04T01:16:53;0.75;63.62
33109;HTU21D;19481;51.118;6.940;2023-12-04T01:21:57;0.73;63.16
33109;HTU21D;19481;51.118;6.940;2023-12-04T01:26:58;0.68;62.92
33109;HTU21D;19481;51.118;6.940;2023-12-04T01:32:00;0.71;62.50
33109;HTU21D;19481;51.118;6.940;2023-12-04T01:37:03;0.73;62.96
33109;HTU21D;19481;51.118;6.940;2023-12-04T01:42:05;0.69;62.54
33109;HTU21D;19481;51.118;6.940;2023-12-04T01:47:15;0.68;62.32
33109;HTU21D;19481;51.118;6.940;2023-12-04T01:52:16;0.65;61.98
33109;HTU21D;19481;51.118;6.940;2023-12-04T01:57:18;0.64;62.78
33109;HTU21D;19481;51.118;6.940;2023-12-04T02:02:21;0.68;62.80
33109;HTU21D;19481;51.118;6.940;2023-12-04T02:07:23;0.71;61.96
33109;HTU21D;19481;51.118;6.940;2023-12-04T02:12:25;0.71;62.30
33109;HTU21D;19481;51.118;6.940;2023-12-04T02:17:28;0.75;61.63
33109;HTU21D;19481;51.118;6.940;2023-12-04T02:22:30;0.77;61.32
33109;HTU21D;19481;51.118;6.940;2023-12-04T02:27:38;0.76;61.38
33109;HTU21D;19481;51.118;6.940;2023-12-04T02:32:44;0.75;61.95
33109;HTU21D;19481;51.118;6.940;2023-12-04T02:37:47;0.71;61.76
33109;HTU21D;19481;51.118;6.940;2023-12-04T02:42:50;0.74;62.08
33109;HTU21D;19481;51.118;6.940;2023-12-04T02:47:51;0.73;61.60
33109;HTU21D;19481;51.118;6.940;2023-12-04T02:52:53;0.77;61.38
33109;HTU21D;19481;51.118;6.940;2023-12-04T02:57:56;0.76;61.67
33109;HTU21D;19481;51.118;6.940;2023-12-04T03:02:57;0.77;61.54
33109;HTU21D;19481;51.118;6.940;2023-12-04T03:07:59;0.79;61.43
33109;HTU21D;19481;51.118;6.940;2023-12-04T03:13:02;0.82;61.60
33109;HTU21D;19481;51.118;6.940;2023-12-04T03:18:04;0.83;61.18
33109;HTU21D;19481;51.118;6.940;2023-12-04T03:23:05;0.82;59.99
33109;HTU21D;19481;51.118;6.940;2023-12-04T03:28:08;0.79;60.07
33109;HTU21D;19481;51.118;6.940;2023-12-04T03:33:10;0.79;60.69
33109;HTU21D;19481;51.118;6.940;2023-12-04T03:38:11;0.78;61.17
33109;HTU21D;19481;51.118;6.940;2023-12-04T03:43:14;0.86;58.47
33109;HTU21D;19481;51.118;6.940;2023-12-04T03:48:16;0.84;58.35
33109;HTU21D;19481;51.118;6.940;2023-12-04T03:53:17;0.81;59.04
33109;HTU21D;19481;51.118;6.940;2023-12-04T03:58:20;0.89;58.54
33109;HTU21D;19481;51.118;6.940;2023-12-04T04:03:22;0.88;59.64
33109;HTU21D;19481;51.118;6.940;2023-12-04T04:08:23;0.90;58.51
33109;HTU21D;19481;51.118;6.940;2023-12-04T04:13:26;0.91;58.52
33109;HTU21D;19481;51.118;6.940;2023-12-04T04:18:28;0.93;57.95
33109;HTU21D;19481;51.118;6.940;2023-12-04T04:23:29;0.93;57.47
33109;HTU21D;19481;51.118;6.940;2023-12-04T04:28:32;0.91;59.37
33109;HTU21D;19481;51.118;6.940;2023-12-04T04:33:34;0.87;57.58
33109;HTU21D;19481;51.118;6.940;2023-12-04T04:38:36;0.83;60.57
33109;HTU21D;19481;51.118;6.940;2023-12-04T04:43:39;0.83;60.68
33109;HTU21D;19481;51.118;6.940;2023-12-04T04:48:40;0.82;58.89
33109;HTU21D;19481;51.118;6.940;2023-12-04T04:53:42;0.79;59.41
33109;HTU21D;19481;51.118;6.940;2023-12-04T04:58:45;0.79;59.20
33109;HTU21D;19481;51.118;6.940;2023-12-04T05:03:46;0.77;59.31
33109;HTU21D;19481;51.118;6.940;2023-12-04T05:08:48;0.78;59.67
33109;HTU21D;19481;51.118;6.940;2023-12-04T05:13:52;0.73;59.09
33109;HTU21D;19481;51.118;6.940;2023-12-04T05:18:53;0.74;59.32
33109;HTU21D;19481;51.118;6.940;2023-12-04T05:23:55;0.68;59.83
33109;HTU21D;19481;51.118;6.940;2023-12-04T05:28:58;0.73;59.36
33109;HTU21D;19481;51.118;6.940;2023-12-04T05:34:00;0.75;61.14
33109;HTU21D;19481;51.118;6.940;2023-12-04T05:39:01;0.71;60.94
33109;HTU21D;19481;51.118;6.940;2023-12-04T05:44:04;0.72;61.35
33109;HTU21D;19481;51.118;6.940;2023-12-04T05:49:06;0.69;61.38
33109;HTU21D;19481;51.118;6.940;2023-12-04T05:54:08;0.73;59.73
33109;HTU21D;19481;51.118;6.940;2023-12-04T05:59:11;0.71;60.17
33109;HTU21D;19481;51.118;6.940;2023-12-04T06:04:12;0.74;60.48
33109;HTU21D;19481;51.118;6.940;2023-12-04T06:09:14;0.73;61.47
33109;HTU21D;19481;51.118;6.940;2023-12-04T06:14:18;0.73;60.30
33109;HTU21D;19481;51.118;6.940;2023-12-04T06:19:19;0.75;61.11
33109;HTU21D;19481;51.118;6.940;2023-12-04T06:24:22;0.77;60.09
33109;HTU21D;19481;51.118;6.940;2023-12-04T06:29:25;0.69;61.06
33109;HTU21D;19481;51.118;6.940;2023-12-04T06:34:27;0.69;60.35
33109;HTU21D;19481;51.118;6.940;2023-12-04T06:39:32;0.74;59.97
33109;HTU21D;19481;51.118;6.940;2023-12-04T06:44:36;0.72;60.01
33109;HTU21D;19481;51.118;6.940;2023-12-04T06:49:38;0.72;60.47
33109;HTU21D;19481;51.118;6.940;2023-12-04T06:54:40;0.77;60.60
33109;HTU21D;19481;51.118;6.940;2023-12-04T06:59:43;0.78;61.25
33109;HTU21D;19481;51.118;6.940;2023-12-04T07:04:44;0.81;59.52
33109;HTU21D;19481;51.118;6.940;2023-12-04T07:09:46;0.76;60.38
33109;HTU21D;19481;51.118;6.940;2023-12-04T07:14:49;0.75;60.19
33109;HTU21D;19481;51.118;6.940;2023-12-04T07:19:51;0.75;60.60
33109;HTU21D;19481;51.118;6.940;2023-12-04T07:24:53;0.80;60.30
33109;HTU21D;19481;51.118;6.940;2023-12-04T07:29:56;0.86;59.98
33109;HTU21D;19481;51.118;6.940;2023-12-04T07:34:57;0.89;59.85
33109;HTU21D;19481;51.118;6.940;2023-12-04T07:39:59;0.98;60.17
33109;HTU21D;19481;51.118;6.940;2023-12-04T07:45:02;1.08;59.01
33109;HTU21D;19481;51.118;6.940;2023-12-04T07:50:05;1.18;57.06
33109;HTU21D;19481;51.118;6.940;2023-12-04T07:55:08;1.27;57.98
33109;HTU21D;19481;51.118;6.940;2023-12-04T08:00:12;1.37;56.69
33109;HTU21D;19481;51.118;6.940;2023-12-04T08:05:14;1.52;58.31
33109;HTU21D;19481;51.118;6.940;2023-12-04T08:10:16;1.55;56.03
33109;HTU21D;19481;51.118;6.940;2023-12-04T08:15:19;1.61;55.02
33109;HTU21D;19481;51.118;6.940;2023-12-04T08:20:20;1.67;54.58
33109;HTU21D;19481;51.118;6.940;2023-12-04T08:25:23;1.76;55.46
33109;HTU21D;19481;51.118;6.940;2023-12-04T08:30:26;1.75;55.94
33109;HTU21D;19481;51.118;6.940;2023-12-04T08:35:28;1.77;54.73
33109;HTU21D;19481;51.118;6.940;2023-12-04T08:40:30;1.77;53.10
33109;HTU21D;19481;51.118;6.940;2023-12-04T08:45:33;1.78;54.01
33109;HTU21D;19481;51.118;6.940;2023-12-04T08:50:35;1.75;55.55
33109;HTU21D;19481;51.118;6.940;2023-12-04T08:55:37;1.70;53.13
33109;HTU21D;19481;51.118;6.940;2023-12-04T09:00:40;1.77;56.19
33109;HTU21D;19481;51.118;6.940;2023-12-04T09:05:43;1.79;55.20
33109;HTU21D;19481;51.118;6.940;2023-12-04T09:10:44;1.81;53.17
33109;HTU21D;19481;51.118;6.940;2023-12-04T09:15:49;1.84;55.49
33109;HTU21D;19481;51.118;6.940;2023-12-04T09:20:51;1.84;53.53
33109;HTU21D;19481;51.118;6.940;2023-12-04T09:25:52;1.85;54.81
33109;HTU21D;19481;51.118;6.940;2023-12-04T09:30:55;1.87;56.03
33109;HTU21D;19481;51.118;6.940;2023-12-04T09:35:57;1.85;54.97
33109;HTU21D;19481;51.118;6.940;2023-12-04T09:40:59;1.87;53.71
33109;HTU21D;19481;51.118;6.940;2023-12-04T09:46:03;1.91;54.30
33109;HTU21D;19481;51.118;6.940;2023-12-04T09:51:06;1.88;53.77
33109;HTU21D;19481;51.118;6.940;2023-12-04T09:56:09;1.94;55.83
33109;HTU21D;19481;51.118;6.940;2023-12-04T10:01:13;2.01;54.37
33109;HTU21D;19481;51.118;6.940;2023-12-04T10:06:16;2.16;53.75
33109;HTU21D;19481;51.118;6.940;2023-12-04T10:11:18;2.14;52.18
33109;HTU21D;19481;51.118;6.940;2023-12-04T10:16:35;2.17;52.14
33109;HTU21D;19481;51.118;6.940;2023-12-04T10:21:37;2.28;55.19
33109;HTU21D;19481;51.118;6.940;2023-12-04T10:26:49;2.29;52.57
33109;HTU21D;19481;51.118;6.940;2023-12-04T10:31:53;2.34;56.01
33109;HTU21D;19481;51.118;6.940;2023-12-04T10:36:56;2.32;55.65
33109;HTU21D;19481;51.118;6.940;2023-12-04T10:41:59;2.28;55.29
33109;HTU21D;19481;51.118;6.940;2023-12-04T10:47:04;2.29;55.81
33109;HTU21D;19481;51.118;6.940;2023-12-04T10:52:07;2.28;55.02
33109;HTU21D;19481;51.118;6.940;2023-12-04T10:57:09;2.31;56.24
33109;HTU21D;19481;51.118;6.940;2023-12-04T11:02:19;2.31;55.48
33109;HTU21D;19481;51.118;6.940;2023-12-04T11:07:23;2.22;56.68
33109;HTU21D;19481;51.118;6.940;2023-12-04T11:12:29;2.23;59.45
33109;HTU21D;19481;51.118;6.940;2023-12-04T11:17:36;2.17;60.67
33109;HTU21D;19481;51.118;6.940;2023-12-04T11:22:38;2.10;61.96
33109;HTU21D;19481;51.118;6.940;2023-12-04T11:27:41;2.01;62.49
33109;HTU21D;19481;51.118;6.940;2023-12-04T11:32:45;1.93;63.31
33109;HTU21D;19481;51.118;6.940;2023-12-04T11:37:47;1.91;64.34
33109;HTU21D;19481;51.118;6.940;2023-12-04T11:42:49;1.79;65.85
33109;HTU21D;19481;51.118;6.940;2023-12-04T11:47:54;1.78;66.59
33109;HTU21D;19481;51.118;6.940;2023-12-04T11:52:56;1.71;67.90
33109;HTU21D;19481;51.118;6.940;2023-12-04T11:57:58;1.67;68.78
33109;HTU21D;19481;51.118;6.940;2023-12-04T12:03:06;1.60;69.48
33109;HTU21D;19481;51.118;6.940;2023-12-04T12:08:09;1.62;69.89
33109;HTU21D;19481;51.118;6.940;2023-12-04T12:13:11;1.55;70.55
33109;HTU21D;19481;51.118;6.940;2023-12-04T12:18:15;1.50;71.32
33109;HTU21D;19481;51.118;6.940;2023-12-04T12:23:16;1.54;71.11
33109;HTU21D;19481;51.118;6.940;2023-12-04T12:28:18;1.47;71.87
33109;HTU21D;19481;51.118;6.940;2023-12-04T12:33:21;1.51;72.32
33109;HTU21D;19481;51.118;6.940;2023-12-04T12:38:23;1.54;72.76
33109;HTU21D;19481;51.118;6.940;2023-12-04T12:43:27;1.49;72.74
33109;HTU21D;19481;51.118;6.940;2023-12-04T12:48:30;1.51;73.89
33109;HTU21D;19481;51.118;6.940;2023-12-04T12:53:32;1.51;73.88
33109;HTU21D;19481;51.118;6.940;2023-12-04T12:58:34;1.50;74.55
33109;HTU21D;19481;51.118;6.940;2023-12-04T13:03:37;1.50;74.80
33109;HTU21D;19481;51.118;6.940;2023-12-04T13:08:39;1.50;74.80
33109;HTU21D;19481;51.118;6.940;2023-12-04T13:13:41;1.60;74.59
33109;HTU21D;19481;51.118;6.940;2023-12-04T13:18:44;1.65;74.44
33109;HTU21D;19481;51.118;6.940;2023-12-04T13:23:46;1.79;73.86
33109;HTU21D;19481;51.118;6.940;2023-12-04T13:28:48;1.80;73.90
33109;HTU21D;19481;51.118;6.940;2023-12-04T13:33:51;1.78;73.61
33109;HTU21D;19481;51.118;6.940;2023-12-04T13:38:53;1.78;73.53
33109;HTU21D;19481;51.118;6.940;2023-12-04T13:43:54;1.79;72.60
33109;HTU21D;19481;51.118;6.940;2023-12-04T13:48:58;1.84;72.58
33109;HTU21D;19481;51.118;6.940;2023-12-04T13:53:59;1.91;71.76
33109;HTU21D;19481;51.118;6.940;2023-12-04T13:59:09;1.95;71.42
33109;HTU21D;19481;51.118;6.940;2023-12-04T14:04:24;1.98;70.93
33109;HTU21D;19481;51.118;6.940;2023-12-04T14:09:26;1.98;70.65
33109;HTU21D;19481;51.118;6.940;2023-12-04T14:14:27;2.01;70.93
33109;HTU21D;19481;51.118;6.940;2023-12-04T14:19:30;2.01;70.58
33109;HTU21D;19481;51.118;6.940;2023-12-04T14:24:32;2.03;70.68
33109;HTU21D;19481;51.118;6.940;2023-12-04T14:29:35;2.03;70.74
33109;HTU21D;19481;51.118;6.940;2023-12-04T14:34:38;2.05;70.21
33109;HTU21D;19481;51.118;6.940;2023-12-04T14:39:41;2.07;70.10
33109;HTU21D;19481;51.118;6.940;2023-12-04T14:44:43;2.07;70.07
33109;HTU21D;19481;51.118;6.940;2023-12-04T14:49:46;2.09;69.43
33109;HTU21D;19481;51.118;6.940;2023-12-04T14:54:48;2.10;69.16
33109;HTU21D;19481;51.118;6.940;2023-12-04T15:00:14;2.14;69.17
33109;HTU21D;19481;51.118;6.940;2023-12-04T15:05:37;2.15;68.89
33109;HTU21D;19481;51.118;6.940;2023-12-04T15:11:08;2.16;68.82
33109;HTU21D;19481;51.118;6.940;2023-12-04T15:16:27;2.21;68.42
33109;HTU21D;19481;51.118;6.940;2023-12-04T15:21:37;2.19;68.64
33109;HTU21D;19481;51.118;6.940;2023-12-04T15:26:38;2.21;68.35
33109;HTU21D;19481;51.118;6.940;2023-12-04T15:31:40;2.19;69.07
33109;HTU21D;19481;51.118;6.940;2023-12-04T15:36:43;2.14;69.92
33109;HTU21D;19481;51.118;6.940;2023-12-04T15:41:44;2.11;70.31
33109;HTU21D;19481;51.118;6.940;2023-12-04T15:46:46;1.88;72.06
33109;HTU21D;19481;51.118;6.940;2023-12-04T15:51:49;1.67;74.57
33109;HTU21D;19481;51.118;6.940;2023-12-04T15:56:51;1.58;75.41
33109;HTU21D;19481;51.118;6.940;2023-12-04T16:01:52;1.57;75.88
33109;HTU21D;19481;51.118;6.940;2023-12-04T16:06:56;1.55;76.05
33109;HTU21D;19481;51.118;6.940;2023-12-04T16:11:57;1.58;75.88
33109;HTU21D;19481;51.118;6.940;2023-12-04T16:16:59;1.60;75.69
33109;HTU21D;19481;51.118;6.940;2023-12-04T16:22:02;1.63;75.44
33109;HTU21D;19481;51.118;6.940;2023-12-04T16:27:04;1.66;75.41
33109;HTU21D;19481;51.118;6.940;2023-12-04T16:32:06;1.68;75.26
33109;HTU21D;19481;51.118;6.940;2023-12-04T16:37:09;1.72;75.09
33109;HTU21D;19481;51.118;6.940;2023-12-04T16:42:11;1.71;75.31
33109;HTU21D;19481;51.118;6.940;2023-12-04T16:47:12;1.72;75.38
33109;HTU21D;19481;51.118;6.940;2023-12-04T16:52:15;1.80;74.89
33109;HTU21D;19481;51.118;6.940;2023-12-04T16:57:17;1.83;74.39
33109;HTU21D;19481;51.118;6.940;2023-12-04T17:02:18;1.87;74.28
33109;HTU21D;19481;51.118;6.940;2023-12-04T17:07:21;1.88;74.39
33109;HTU21D;19481;51.118;6.940;2023-12-04T17:12:23;1.91;74.32
33109;HTU21D;19481;51.118;6.940;2023-12-04T17:17:24;1.94;74.15
33109;HTU21D;19481;51.118;6.940;2023-12-04T17:22:27;1.98;73.68
33109;HTU21D;19481;51.118;6.940;2023-12-04T17:27:29;2.06;73.29
33109;HTU21D;19481;51.118;6.940;2023-12-04T17:32:30;2.09;73.25
33109;HTU21D;19481;51.118;6.940;2023-12-04T17:37:34;2.10;73.83
33109;HTU21D;19481;51.118;6.940;2023-12-04T17:42:36;2.10;74.08
33109;HTU21D;19481;51.118;6.940;2023-12-04T17:47:38;2.07;74.60
33109;HTU21D;19481;51.118;6.940;2023-12-04T17:52:41;2.00;75.66
33109;HTU21D;19481;51.118;6.940;2023-12-04T17:57:43;1.91;76.73
33109;HTU21D;19481;51.118;6.940;2023-12-04T18:02:45;1.76;77.55
33109;HTU21D;19481;51.118;6.940;2023-12-04T18:07:48;1.66;79.24
33109;HTU21D;19481;51.118;6.940;2023-12-04T18:12:49;1.71;79.31
33109;HTU21D;19481;51.118;6.940;2023-12-04T18:17:51;1.75;79.79
33109;HTU21D;19481;51.118;6.940;2023-12-04T18:22:55;1.76;80.11
33109;HTU21D;19481;51.118;6.940;2023-12-04T18:27:57;1.79;80.39
33109;HTU21D;19481;51.118;6.940;2023-12-04T18:32:59;1.85;80.03
33109;HTU21D;19481;51.118;6.940;2023-12-04T18:38:06;1.91;79.96
33109;HTU21D;19481;51.118;6.940;2023-12-04T18:43:08;1.96;79.79
33109;HTU21D;19481;51.118;6.940;2023-12-04T18:48:11;2.03;79.41
33109;HTU21D;19481;51.118;6.940;2023-12-04T18:53:20;2.07;79.29
33109;HTU21D;19481;51.118;6.940;2023-12-04T18:58:21;2.13;79.01
33109;HTU21D;19481;51.118;6.940;2023-12-04T19:03:23;2.14;78.88
33109;HTU21D;19481;51.118;6.940;2023-12-04T19:08:26;2.17;79.11
33109;HTU21D;19481;51.118;6.940;2023-12-04T19:13:27;2.20;79.16
33109;HTU21D;19481;51.118;6.940;2023-12-04T19:18:29;2.24;79.18
33109;HTU21D;19481;51.118;6.940;2023-12-04T19:23:32;2.29;79.08
33109;HTU21D;19481;51.118;6.940;2023-12-04T19:28:34;2.39;78.94
33109;HTU21D;19481;51.118;6.940;2023-12-04T19:33:36;2.39;78.96
33109;HTU21D;19481;51.118;6.940;2023-12-04T19:38:39;2.42;78.96
33109;HTU21D;19481;51.118;6.940;2023-12-04T19:43:41;2.46;78.94
33109;HTU21D;19481;51.118;6.940;2023-12-04T19:48:42;2.50;78.85
33109;HTU21D;19481;51.118;6.940;2023-12-04T19:53:45;2.54;78.81
33109;HTU21D;19481;51.118;6.940;2023-12-04T19:58:47;2.58;78.79
33109;HTU21D;19481;51.118;6.940;2023-12-04T20:03:49;2.61;78.79
33109;HTU21D;19481;51.118;6.940;2023-12-04T20:08:53;2.67;78.50
33109;HTU21D;19481;51.118;6.940;2023-12-04T20:13:55;2.70;78.60
33109;HTU21D;19481;51.118;6.940;2023-12-04T20:18:56;2.71;78.71
33109;HTU21D;19481;51.118;6.940;2023-12-04T20:23:59;2.81;78.29
33109;HTU21D;19481;51.118;6.940;2023-12-04T20:29:01;2.84;78.36
33109;HTU21D;19481;51.118;6.940;2023-12-04T20:34:02;2.88;78.09
33109;HTU21D;19481;51.118;6.940;2023-12-04T20:39:05;2.91;77.82
33109;HTU21D;19481;51.118;6.940;2023-12-04T20:44:08;2.95;78.05
33109;HTU21D;19481;51.118;6.940;2023-12-04T20:49:10;2.91;78.23
33109;HTU21D;19481;51.118;6.940;2023-12-04T20:54:14;2.94;78.12
33109;HTU21D;19481;51.118;6.940;2023-12-04T20:59:15;2.93;78.36
33109;HTU21D;19481;51.118;6.940;2023-12-04T21:04:17;2.94;78.69
33109;HTU21D;19481;51.118;6.940;2023-12-04T21:09:20;2.96;78.56
33109;HTU21D;19481;51.118;6.940;2023-12-04T21:14:22;2.97;78.72
33109;HTU21D;19481;51.118;6.940;2023-12-04T21:19:23;3.02;78.59
33109;HTU21D;19481;51.118;6.940;2023-12-04T21:24:26;3.03;78.54
33109;HTU21D;19481;51.118;6.940;2023-12-04T21:29:28;3.01;78.98
33109;HTU21D;19481;51.118;6.940;2023-12-04T21:34:30;3.02;79.39
33109;HTU21D;19481;51.118;6.940;2023-12-04T21:39:33;3.06;79.15
33109;HTU21D;19481;51.118;6.940;2023-12-04T21:44:35;3.10;79.04
33109;HTU21D;19481;51.118;6.940;2023-12-04T21:49:36;3.11;79.14
33109;HTU21D;19481;51.118;6.940;2023-12-04T21:54:40;3.13;79.19
33109;HTU21D;19481;51.118;6.940;2023-12-04T21:59:41;3.15;79.33
33109;HTU21D;19481;51.118;6.940;2023-12-04T22:04:43;3.17;79.13
33109;HTU21D;19481;51.118;6.940;2023-12-04T22:09:46;3.20;78.94
33109;HTU21D;19481;51.118;6.940;2023-12-04T22:14:48;3.25;78.91
33109;HTU21D;19481;51.118;6.940;2023-12-04T22:19:49;3.29;78.66
33109;HTU21D;19481;51.118;6.940;2023-12-04T22:24:52;3.35;78.08
33109;HTU21D;19481;51.118;6.940;2023-12-04T22:29:54;3.39;78.05
33109;HTU21D;19481;51.118;6.940;2023-12-04T22:34:55;3.40;77.98
33109;HTU21D;19481;51.118;6.940;2023-12-04T22:39:58;3.47;77.58
33109;HTU21D;19481;51.118;6.940;2023-12-04T22:45:00;3.48;77.79
33109;HTU21D;19481;51.118;6.940;2023-12-04T22:50:01;3.50;77.98
33109;HTU21D;19481;51.118;6.940;2023-12-04T22:55:05;3.52;77.99
33109;HTU21D;19481;51.118;6.940;2023-12-04T23:00:08;3.50;78.36
33109;HTU21D;19481;51.118;6.940;2023-12-04T23:05:12;3.48;78.65
33109;HTU21D;19481;51.118;6.940;2023-12-04T23:10:15;3.46;78.92
33109;HTU21D;19481;51.118;6.940;2023-12-04T23:15:16;3.39;79.59
33109;HTU21D;19481;51.118;6.940;2023-12-04T23:20:18;3.43;80.07
33109;HTU21D;19481;51.118;6.940;2023-12-04T23:25:21;3.52;79.45
33109;HTU21D;19481;51.118;6.940;2023-12-04T23:30:23;3.55;79.17
33109;HTU21D;19481;51.118;6.940;2023-12-04T23:35:24;3.57;79.24
33109;HTU21D;19481;51.118;6.940;2023-12-04T23:40:27;3.59;79.10
33109;HTU21D;19481;51.118;6.940;2023-12-04T23:45:29;3.59;79.14
33109;HTU21D;19481;51.118;6.940;2023-12-04T23:50:30;3.62;79.11
33109;HTU21D;19481;51.118;6.940;2023-12-04T23:55:33;3.68;79.13
